sensor_id;sensor_type;location;lat;lon;timestamp;pressure;altitude;pressure_sealevel;temperature;humidity
69630;BME280;56857;52.212;5.496;2023-06-10T00:01:52;101580.38;;;19.98;100.00
69630;BME280;56857;52.212;5.496;2023-06-10T00:04:18;101578.75;;;19.97;100.00
69630;BME280;56857;52.212;5.496;2023-06-10T00:06:43;101577.09;;;19.96;100.00
69630;BME280;56857;52.212;5.496;2023-06-10T00:09:09;101577.72;;;19.91;100.00
69630;BME280;56857;52.212;5.496;2023-06-10T00:11:34;101570.09;;;19.88;100.00
69630;BME280;56857;52.212;5.496;2023-06-10T00:14:00;101581.06;;;19.86;100.00
69630;BME280;56857;52.212;5.496;2023-06-10T00:16:25;101575.06;;;19.84;100.00
69630;BME280;56857;52.212;5.496;2023-06-10T00:18:51;101578.81;;;19.83;100.00
69630;BME280;56857;52.212;5.496;2023-06-10T00:21:17;101582.31;;;19.84;100.00
69630;BME280;56857;52.212;5.496;2023-06-10T00:23:42;101585.19;;;19.82;100.00
69630;BME280;56857;52.212;5.496;2023-06-10T00:26:08;101578.19;;;19.81;99.67
69630;BME280;56857;52.212;5.496;2023-06-10T00:28:33;101589.59;;;19.77;100.00
69630;BME280;56857;52.212;5.496;2023-06-10T00:30:59;101588.16;;;19.74;100.00
69630;BME280;56857;52.212;5.496;2023-06-10T00:33:24;101591.03;;;19.73;100.00
69630;BME280;56857;52.212;5.496;2023-06-10T00:35:49;101592.09;;;19.72;99.76
69630;BME280;56857;52.212;5.496;2023-06-10T00:38:17;101589.59;;;19.70;99.47
69630;BME280;56857;52.212;5.496;2023-06-10T00:40:45;101589.19;;;19.66;100.00
69630;BME280;56857;52.212;5.496;2023-06-10T00:43:10;101589.81;;;19.62;100.00
69630;BME280;56857;52.212;5.496;2023-06-10T00:45:36;101588.34;;;19.59;100.00
69630;BME280;56857;52.212;5.496;2023-06-10T00:48:01;101592.28;;;19.57;100.00
69630;BME280;56857;52.212;5.496;2023-06-10T00:50:27;101588.78;;;19.56;100.00
69630;BME280;56857;52.212;5.496;2023-06-10T00:52:54;101587.13;;;19.55;100.00
69630;BME280;56857;52.212;5.496;2023-06-10T00:55:20;101588.38;;;19.53;100.00
69630;BME280;56857;52.212;5.496;2023-06-10T00:57:46;101588.56;;;19.51;100.00
69630;BME280;56857;52.212;5.496;2023-06-10T01:00:12;101591.69;;;19.48;100.00
69630;BME280;56857;52.212;5.496;2023-06-10T01:02:38;101594.78;;;19.45;100.00
69630;BME280;56857;52.212;5.496;2023-06-10T01:05:03;101588.59;;;19.44;100.00
69630;BME280;56857;52.212;5.496;2023-06-10T01:08:01;101597.28;;;19.40;100.00
69630;BME280;56857;52.212;5.496;2023-06-10T01:10:53;101592.13;;;19.38;100.00
69630;BME280;56857;52.212;5.496;2023-06-10T01:13:22;101587.16;;;19.35;100.00
69630;BME280;56857;52.212;5.496;2023-06-10T01:15:48;101598.13;;;19.34;100.00
69630;BME280;56857;52.212;5.496;2023-06-10T01:18:13;101600.00;;;19.33;100.00
69630;BME280;56857;52.212;5.496;2023-06-10T01:20:41;101598.75;;;19.29;100.00
69630;BME280;56857;52.212;5.496;2023-06-10T01:23:07;101604.53;;;19.26;100.00
69630;BME280;56857;52.212;5.496;2023-06-10T01:25:34;101605.81;;;19.24;100.00
69630;BME280;56857;52.212;5.496;2023-06-10T01:33:24;101606.41;;;19.12;100.00
69630;BME280;56857;52.212;5.496;2023-06-10T01:35:50;101612.19;;;19.09;100.00
69630;BME280;56857;52.212;5.496;2023-06-10T01:38:17;101612.63;;;19.06;100.00
69630;BME280;56857;52.212;5.496;2023-06-10T01:40:45;101606.63;;;19.04;100.00
69630;BME280;56857;52.212;5.496;2023-06-10T01:43:12;101609.53;;;19.03;100.00
69630;BME280;56857;52.212;5.496;2023-06-10T01:45:37;101609.09;;;18.99;100.00
69630;BME280;56857;52.212;5.496;2023-06-10T01:48:02;101606.63;;;18.97;100.00
69630;BME280;56857;52.212;5.496;2023-06-10T01:50:28;101610.56;;;18.95;100.00
69630;BME280;56857;52.212;5.496;2023-06-10T01:52:53;101603.72;;;18.92;100.00
69630;BME280;56857;52.212;5.496;2023-06-10T01:55:20;101608.47;;;18.90;100.00
69630;BME280;56857;52.212;5.496;2023-06-10T01:57:45;101606.00;;;18.89;100.00
69630;BME280;56857;52.212;5.496;2023-06-10T02:00:11;101595.88;;;18.84;100.00
69630;BME280;56857;52.212;5.496;2023-06-10T02:02:36;101604.16;;;18.83;100.00
69630;BME280;56857;52.212;5.496;2023-06-10T02:05:02;101609.69;;;18.81;100.00
69630;BME280;56857;52.212;5.496;2023-06-10T02:07:28;101610.34;;;18.77;100.00
69630;BME280;56857;52.212;5.496;2023-06-10T02:09:53;101605.16;;;18.75;100.00
69630;BME280;56857;52.212;5.496;2023-06-10T02:12:18;101608.22;;;18.72;100.00
69630;BME280;56857;52.212;5.496;2023-06-10T02:14:43;101609.44;;;18.69;100.00
69630;BME280;56857;52.212;5.496;2023-06-10T02:17:11;101608.03;;;18.67;100.00
69630;BME280;56857;52.212;5.496;2023-06-10T02:19:36;101609.03;;;18.66;100.00
69630;BME280;56857;52.212;5.496;2023-06-10T02:22:02;101598.91;;;18.61;100.00
69630;BME280;56857;52.212;5.496;2023-06-10T02:24:27;101610.88;;;18.59;100.00
69630;BME280;56857;52.212;5.496;2023-06-10T02:26:52;101610.06;;;18.58;100.00
69630;BME280;56857;52.212;5.496;2023-06-10T02:29:18;101616.25;;;18.59;100.00
69630;BME280;56857;52.212;5.496;2023-06-10T02:31:43;101616.47;;;18.57;100.00
69630;BME280;56857;52.212;5.496;2023-06-10T02:34:09;101613.97;;;18.56;100.00
69630;BME280;56857;52.212;5.496;2023-06-10T02:36:34;101617.69;;;18.55;100.00
69630;BME280;56857;52.212;5.496;2023-06-10T02:39:02;101617.28;;;18.51;100.00
69630;BME280;56857;52.212;5.496;2023-06-10T02:41:27;101629.03;;;18.50;100.00
69630;BME280;56857;52.212;5.496;2023-06-10T02:43:52;101623.88;;;18.48;100.00
69630;BME280;56857;52.212;5.496;2023-06-10T02:46:18;101622.41;;;18.46;100.00
69630;BME280;56857;52.212;5.496;2023-06-10T02:48:43;101616.63;;;18.42;100.00
69630;BME280;56857;52.212;5.496;2023-06-10T02:51:08;101621.38;;;18.40;100.00
69630;BME280;56857;52.212;5.496;2023-06-10T02:53:34;101626.13;;;18.38;100.00
69630;BME280;56857;52.212;5.496;2023-06-10T02:55:59;101629.81;;;18.37;100.00
69630;BME280;56857;52.212;5.496;2023-06-10T02:58:24;101626.31;;;18.37;100.00
69630;BME280;56857;52.212;5.496;2023-06-10T03:00:49;101619.47;;;18.34;100.00
69630;BME280;56857;52.212;5.496;2023-06-10T03:03:15;101620.09;;;18.29;100.00
69630;BME280;56857;52.212;5.496;2023-06-10T03:05:40;101620.28;;;18.28;100.00
69630;BME280;56857;52.212;5.496;2023-06-10T03:08:05;101615.97;;;18.27;100.00
69630;BME280;56857;52.212;5.496;2023-06-10T03:10:31;101615.13;;;18.26;100.00
69630;BME280;56857;52.212;5.496;2023-06-10T03:12:56;101620.91;;;18.23;100.00
69630;BME280;56857;52.212;5.496;2023-06-10T03:15:21;101624.81;;;18.21;100.00
69630;BME280;56857;52.212;5.496;2023-06-10T03:17:47;101625.03;;;18.19;100.00
69630;BME280;56857;52.212;5.496;2023-06-10T03:20:12;101632.44;;;18.17;100.00
69630;BME280;56857;52.212;5.496;2023-06-10T03:22:37;101625.44;;;18.16;100.00
69630;BME280;56857;52.212;5.496;2023-06-10T03:25:03;101625.19;;;18.11;100.00
69630;BME280;56857;52.212;5.496;2023-06-10T03:27:29;101621.25;;;18.07;100.00
69630;BME280;56857;52.212;5.496;2023-06-10T03:29:54;101633.22;;;18.04;100.00
69630;BME280;56857;52.212;5.496;2023-06-10T03:32:19;101632.38;;;18.04;100.00
69630;BME280;56857;52.212;5.496;2023-06-10T03:34:45;101631.75;;;18.02;100.00
69630;BME280;56857;52.212;5.496;2023-06-10T03:37:10;101634.84;;;17.99;100.00
69630;BME280;56857;52.212;5.496;2023-06-10T03:39:35;101639.56;;;17.97;100.00
69630;BME280;56857;52.212;5.496;2023-06-10T03:42:01;101630.69;;;17.96;100.00
69630;BME280;56857;52.212;5.496;2023-06-10T03:44:27;101633.75;;;17.93;100.00
69630;BME280;56857;52.212;5.496;2023-06-10T03:46:52;101630.47;;;17.91;100.00
69630;BME280;56857;52.212;5.496;2023-06-10T03:49:17;101634.63;;;17.94;100.00
69630;BME280;56857;52.212;5.496;2023-06-10T03:51:44;101644.31;;;17.95;100.00
69630;BME280;56857;52.212;5.496;2023-06-10T03:54:09;101649.03;;;17.93;100.00
69630;BME280;56857;52.212;5.496;2023-06-10T03:56:35;101644.06;;;17.90;100.00
69630;BME280;56857;52.212;5.496;2023-06-10T03:59:00;101649.22;;;17.85;100.00
69630;BME280;56857;52.212;5.496;2023-06-10T04:01:26;101640.13;;;17.86;100.00
69630;BME280;56857;52.212;5.496;2023-06-10T04:03:51;101646.31;;;17.86;100.00
69630;BME280;56857;52.212;5.496;2023-06-10T04:06:17;101640.13;;;17.86;100.00
69630;BME280;56857;52.212;5.496;2023-06-10T04:08:42;101642.00;;;17.85;100.00
69630;BME280;56857;52.212;5.496;2023-06-10T04:11:08;101646.72;;;17.83;100.00
69630;BME280;56857;52.212;5.496;2023-06-10T04:13:33;101644.03;;;17.83;100.00
69630;BME280;56857;52.212;5.496;2023-06-10T04:15:58;101655.78;;;17.82;100.00
69630;BME280;56857;52.212;5.496;2023-06-10T04:18:24;101646.94;;;17.81;100.00
69630;BME280;56857;52.212;5.496;2023-06-10T04:20:49;101653.13;;;17.82;100.00
69630;BME280;56857;52.212;5.496;2023-06-10T04:23:15;101650.00;;;17.78;100.00
69630;BME280;56857;52.212;5.496;2023-06-10T04:25:40;101656.63;;;17.82;100.00
69630;BME280;56857;52.212;5.496;2023-06-10T04:28:05;101656.22;;;17.86;100.00
69630;BME280;56857;52.212;5.496;2023-06-10T04:30:31;101658.50;;;17.89;100.00
69630;BME280;56857;52.212;5.496;2023-06-10T04:32:56;101659.97;;;17.91;100.00
69630;BME280;56857;52.212;5.496;2023-06-10T04:35:21;101664.13;;;17.94;100.00
69630;BME280;56857;52.212;5.496;2023-06-10T04:37:47;101666.81;;;17.94;100.00
69630;BME280;56857;52.212;5.496;2023-06-10T04:40:12;101662.88;;;17.96;100.00
69630;BME280;56857;52.212;5.496;2023-06-10T04:42:37;101667.25;;;17.97;100.00
69630;BME280;56857;52.212;5.496;2023-06-10T04:45:03;101670.53;;;17.99;100.00
69630;BME280;56857;52.212;5.496;2023-06-10T04:47:29;101670.13;;;18.02;100.00
69630;BME280;56857;52.212;5.496;2023-06-10T04:49:55;101676.78;;;18.06;100.00
69630;BME280;56857;52.212;5.496;2023-06-10T04:52:20;101674.72;;;18.09;100.00
69630;BME280;56857;52.212;5.496;2023-06-10T04:54:45;101675.13;;;18.12;100.00
69630;BME280;56857;52.212;5.496;2023-06-10T04:57:10;101669.19;;;18.17;100.00
69630;BME280;56857;52.212;5.496;2023-06-10T04:59:36;101676.84;;;18.20;100.00
69630;BME280;56857;52.212;5.496;2023-06-10T05:02:02;101675.41;;;18.24;100.00
69630;BME280;56857;52.212;5.496;2023-06-10T05:04:27;101672.31;;;18.27;100.00
69630;BME280;56857;52.212;5.496;2023-06-10T05:06:52;101671.09;;;18.29;100.00
69630;BME280;56857;52.212;5.496;2023-06-10T05:09:18;101672.56;;;18.32;100.00
69630;BME280;56857;52.212;5.496;2023-06-10T05:11:43;101682.91;;;18.35;100.00
69630;BME280;56857;52.212;5.496;2023-06-10T05:14:08;101679.41;;;18.41;100.00
69630;BME280;56857;52.212;5.496;2023-06-10T05:16:33;101677.97;;;18.45;100.00
69630;BME280;56857;52.212;5.496;2023-06-10T05:18:59;101680.03;;;18.50;100.00
69630;BME280;56857;52.212;5.496;2023-06-10T05:21:24;101675.94;;;18.54;100.00
69630;BME280;56857;52.212;5.496;2023-06-10T05:23:49;101670.19;;;18.57;100.00
69630;BME280;56857;52.212;5.496;2023-06-10T05:26:15;101670.59;;;18.61;100.00
69630;BME280;56857;52.212;5.496;2023-06-10T05:28:40;101670.38;;;18.62;100.00
69630;BME280;56857;52.212;5.496;2023-06-10T05:31:05;101678.84;;;18.66;100.00
69630;BME280;56857;52.212;5.496;2023-06-10T05:33:31;101676.59;;;18.69;100.00
69630;BME280;56857;52.212;5.496;2023-06-10T05:35:56;101678.91;;;18.72;100.00
69630;BME280;56857;52.212;5.496;2023-06-10T05:38:21;101688.22;;;18.77;100.00
69630;BME280;56857;52.212;5.496;2023-06-10T05:40:47;101688.44;;;18.82;100.00
69630;BME280;56857;52.212;5.496;2023-06-10T05:43:12;101683.50;;;18.85;100.00
69630;BME280;56857;52.212;5.496;2023-06-10T05:45:37;101688.44;;;18.88;100.00
69630;BME280;56857;52.212;5.496;2023-06-10T05:48:03;101685.34;;;18.91;100.00
69630;BME280;56857;52.212;5.496;2023-06-10T05:50:29;101691.16;;;18.95;100.00
69630;BME280;56857;52.212;5.496;2023-06-10T05:52:54;101694.28;;;18.98;100.00
69630;BME280;56857;52.212;5.496;2023-06-10T05:55:19;101688.25;;;19.03;100.00
69630;BME280;56857;52.212;5.496;2023-06-10T05:57:45;101693.22;;;19.06;100.00
69630;BME280;56857;52.212;5.496;2023-06-10T06:00:11;101688.09;;;19.11;100.00
69630;BME280;56857;52.212;5.496;2023-06-10T06:02:36;101681.47;;;19.14;100.00
69630;BME280;56857;52.212;5.496;2023-06-10T06:05:02;101685.41;;;19.18;100.00
69630;BME280;56857;52.212;5.496;2023-06-10T06:07:27;101677.75;;;19.21;100.00
69630;BME280;56857;52.212;5.496;2023-06-10T06:09:52;101688.31;;;19.23;100.00
69630;BME280;56857;52.212;5.496;2023-06-10T06:12:18;101686.84;;;19.27;100.00
69630;BME280;56857;52.212;5.496;2023-06-10T06:14:43;101691.00;;;19.30;100.00
69630;BME280;56857;52.212;5.496;2023-06-10T06:17:09;101690.16;;;19.36;100.00
69630;BME280;56857;52.212;5.496;2023-06-10T06:19:34;101688.72;;;19.40;100.00
69630;BME280;56857;52.212;5.496;2023-06-10T06:21:59;101691.81;;;19.43;100.00
69630;BME280;56857;52.212;5.496;2023-06-10T06:24:25;101687.66;;;19.48;100.00
69630;BME280;56857;52.212;5.496;2023-06-10T06:26:50;101694.50;;;19.50;100.00
69630;BME280;56857;52.212;5.496;2023-06-10T06:29:15;101690.34;;;19.54;100.00
69630;BME280;56857;52.212;5.496;2023-06-10T06:31:41;101689.75;;;19.59;100.00
69630;BME280;56857;52.212;5.496;2023-06-10T06:34:06;101688.69;;;19.60;100.00
69630;BME280;56857;52.212;5.496;2023-06-10T06:36:32;101676.91;;;19.61;100.00
69630;BME280;56857;52.212;5.496;2023-06-10T06:38:57;101691.78;;;19.63;100.00
69630;BME280;56857;52.212;5.496;2023-06-10T06:41:22;101680.63;;;19.66;100.00
69630;BME280;56857;52.212;5.496;2023-06-10T06:43:48;101687.28;;;19.71;100.00
69630;BME280;56857;52.212;5.496;2023-06-10T06:46:13;101692.84;;;19.76;100.00
69630;BME280;56857;52.212;5.496;2023-06-10T06:48:38;101690.34;;;19.81;100.00
69630;BME280;56857;52.212;5.496;2023-06-10T06:51:04;101685.16;;;19.86;100.00
69630;BME280;56857;52.212;5.496;2023-06-10T06:53:29;101688.06;;;19.91;100.00
69630;BME280;56857;52.212;5.496;2023-06-10T06:55:54;101689.91;;;19.97;100.00
69630;BME280;56857;52.212;5.496;2023-06-10T06:58:20;101694.44;;;20.03;100.00
69630;BME280;56857;52.212;5.496;2023-06-10T07:00:45;101694.66;;;20.08;100.00
69630;BME280;56857;52.212;5.496;2023-06-10T07:03:10;101687.16;;;20.10;100.00
69630;BME280;56857;52.212;5.496;2023-06-10T07:05:36;101692.94;;;20.14;100.00
69630;BME280;56857;52.212;5.496;2023-06-10T07:08:01;101698.75;;;20.18;100.00
69630;BME280;56857;52.212;5.496;2023-06-10T07:10:28;101693.13;;;20.26;100.00
69630;BME280;56857;52.212;5.496;2023-06-10T07:12:53;101695.78;;;20.32;100.00
69630;BME280;56857;52.212;5.496;2023-06-10T07:15:19;101695.75;;;20.39;100.00
69630;BME280;56857;52.212;5.496;2023-06-10T07:17:44;101696.56;;;20.46;100.00
69630;BME280;56857;52.212;5.496;2023-06-10T07:20:10;101690.13;;;20.54;100.00
69630;BME280;56857;52.212;5.496;2023-06-10T07:22:36;101684.94;;;20.59;100.00
69630;BME280;56857;52.212;5.496;2023-06-10T07:25:01;101686.97;;;20.64;100.00
69630;BME280;56857;52.212;5.496;2023-06-10T07:27:27;101699.81;;;20.68;100.00
69630;BME280;56857;52.212;5.496;2023-06-10T07:29:52;101690.25;;;20.72;100.00
69630;BME280;56857;52.212;5.496;2023-06-10T07:32:19;101687.72;;;20.77;100.00
69630;BME280;56857;52.212;5.496;2023-06-10T07:34:45;101692.47;;;20.82;100.00
69630;BME280;56857;52.212;5.496;2023-06-10T07:37:10;101685.41;;;20.88;100.00
69630;BME280;56857;52.212;5.496;2023-06-10T07:39:35;101691.78;;;20.93;100.00
69630;BME280;56857;52.212;5.496;2023-06-10T07:42:01;101692.56;;;21.00;100.00
69630;BME280;56857;52.212;5.496;2023-06-10T07:44:26;101688.56;;;21.10;100.00
69630;BME280;56857;52.212;5.496;2023-06-10T07:46:51;101688.28;;;21.18;100.00
69630;BME280;56857;52.212;5.496;2023-06-10T07:49:17;101690.88;;;21.31;100.00
69630;BME280;56857;52.212;5.496;2023-06-10T07:51:42;101693.50;;;21.44;100.00
69630;BME280;56857;52.212;5.496;2023-06-10T07:54:07;101696.97;;;21.51;100.00
69630;BME280;56857;52.212;5.496;2023-06-10T07:56:33;101705.16;;;21.63;100.00
69630;BME280;56857;52.212;5.496;2023-06-10T07:58:58;101704.50;;;21.68;100.00
69630;BME280;56857;52.212;5.496;2023-06-10T08:01:23;101699.47;;;21.71;100.00
69630;BME280;56857;52.212;5.496;2023-06-10T08:03:49;101695.50;;;21.74;100.00
69630;BME280;56857;52.212;5.496;2023-06-10T08:06:14;101707.06;;;21.81;100.00
69630;BME280;56857;52.212;5.496;2023-06-10T08:08:43;101700.31;;;21.90;100.00
69630;BME280;56857;52.212;5.496;2023-06-10T08:11:10;101699.41;;;21.96;100.00
69630;BME280;56857;52.212;5.496;2023-06-10T08:13:36;101701.47;;;22.01;100.00
69630;BME280;56857;52.212;5.496;2023-06-10T08:16:02;101702.81;;;22.10;100.00
69630;BME280;56857;52.212;5.496;2023-06-10T08:18:27;101702.31;;;22.20;100.00
69630;BME280;56857;52.212;5.496;2023-06-10T08:20:53;101699.09;;;22.30;100.00
69630;BME280;56857;52.212;5.496;2023-06-10T08:23:18;101702.69;;;22.42;100.00
69630;BME280;56857;52.212;5.496;2023-06-10T08:25:43;101698.97;;;22.55;100.00
69630;BME280;56857;52.212;5.496;2023-06-10T08:28:09;101698.88;;;22.61;100.00
69630;BME280;56857;52.212;5.496;2023-06-10T08:30:34;101705.63;;;22.71;100.00
69630;BME280;56857;52.212;5.496;2023-06-10T08:32:59;101697.06;;;22.85;100.00
69630;BME280;56857;52.212;5.496;2023-06-10T08:35:25;101697.41;;;22.96;100.00
69630;BME280;56857;52.212;5.496;2023-06-10T08:37:52;101697.28;;;23.02;100.00
69630;BME280;56857;52.212;5.496;2023-06-10T08:40:25;101703.19;;;23.11;100.00
69630;BME280;56857;52.212;5.496;2023-06-10T08:43:08;101702.03;;;23.19;100.00
69630;BME280;56857;52.212;5.496;2023-06-10T08:45:36;101708.03;;;23.32;100.00
69630;BME280;56857;52.212;5.496;2023-06-10T08:48:03;101699.13;;;23.44;100.00
69630;BME280;56857;52.212;5.496;2023-06-10T08:50:29;101703.47;;;23.56;100.00
69630;BME280;56857;52.212;5.496;2023-06-10T08:52:57;101709.03;;;23.73;100.00
69630;BME280;56857;52.212;5.496;2023-06-10T08:55:43;101707.00;;;23.92;100.00
69630;BME280;56857;52.212;5.496;2023-06-10T08:58:10;101701.13;;;24.07;98.41
69630;BME280;56857;52.212;5.496;2023-06-10T09:00:36;101703.81;;;24.19;97.36
69630;BME280;56857;52.212;5.496;2023-06-10T09:03:03;101708.13;;;24.32;95.96
69630;BME280;56857;52.212;5.496;2023-06-10T09:05:33;101714.56;;;24.54;94.46
69630;BME280;56857;52.212;5.496;2023-06-10T09:08:08;101707.72;;;24.80;95.02
69630;BME280;56857;52.212;5.496;2023-06-10T09:10:33;101705.88;;;24.97;95.52
69630;BME280;56857;52.212;5.496;2023-06-10T09:12:59;101703.66;;;25.11;94.50
69630;BME280;56857;52.212;5.496;2023-06-10T09:15:26;101704.06;;;25.32;92.55
69630;BME280;56857;52.212;5.496;2023-06-10T09:17:52;101702.22;;;25.54;89.87
69630;BME280;56857;52.212;5.496;2023-06-10T09:20:18;101706.97;;;25.81;88.74
69630;BME280;56857;52.212;5.496;2023-06-10T09:22:44;101708.81;;;25.97;87.24
69630;BME280;56857;52.212;5.496;2023-06-10T09:25:13;101702.34;;;26.20;87.13
69630;BME280;56857;52.212;5.496;2023-06-10T09:27:50;101704.53;;;26.67;87.09
69630;BME280;56857;52.212;5.496;2023-06-10T09:30:42;101705.31;;;26.95;85.23
69630;BME280;56857;52.212;5.496;2023-06-10T09:33:14;101704.06;;;27.35;82.13
69630;BME280;56857;52.212;5.496;2023-06-10T09:35:47;101700.34;;;27.88;80.14
69630;BME280;56857;52.212;5.496;2023-06-10T09:38:15;101707.97;;;28.49;75.59
69630;BME280;56857;52.212;5.496;2023-06-10T09:40:54;101711.88;;;29.35;72.54
69630;BME280;56857;52.212;5.496;2023-06-10T09:43:20;101701.88;;;30.16;62.41
69630;BME280;56857;52.212;5.496;2023-06-10T09:45:50;101705.38;;;31.50;55.80
69630;BME280;56857;52.212;5.496;2023-06-10T09:48:15;101708.41;;;32.63;49.33
69630;BME280;56857;52.212;5.496;2023-06-10T09:50:45;101701.13;;;33.71;44.96
69630;BME280;56857;52.212;5.496;2023-06-10T09:53:10;101699.09;;;34.54;41.78
69630;BME280;56857;52.212;5.496;2023-06-10T09:55:41;101706.28;;;35.22;40.01
69630;BME280;56857;52.212;5.496;2023-06-10T09:58:06;101702.38;;;35.94;37.19
69630;BME280;56857;52.212;5.496;2023-06-10T10:00:33;101698.59;;;36.56;35.03
69630;BME280;56857;52.212;5.496;2023-06-10T10:02:59;101704.53;;;37.19;34.38
69630;BME280;56857;52.212;5.496;2023-06-10T10:05:27;101699.13;;;37.78;32.78
69630;BME280;56857;52.212;5.496;2023-06-10T10:07:52;101701.56;;;38.10;31.36
69630;BME280;56857;52.212;5.496;2023-06-10T10:10:20;101698.88;;;38.64;29.76
69630;BME280;56857;52.212;5.496;2023-06-10T10:12:47;101694.25;;;38.89;29.45
69630;BME280;56857;52.212;5.496;2023-06-10T10:15:13;101690.16;;;39.07;28.02
69630;BME280;56857;52.212;5.496;2023-06-10T10:17:46;101691.16;;;39.03;28.48
69630;BME280;56857;52.212;5.496;2023-06-10T10:20:16;101690.38;;;38.48;25.48
69630;BME280;56857;52.212;5.496;2023-06-10T10:22:44;101686.69;;;38.44;28.21
69630;BME280;56857;52.212;5.496;2023-06-10T10:25:16;101684.69;;;38.99;27.89
69630;BME280;56857;52.212;5.496;2023-06-10T10:27:47;101686.63;;;39.44;26.82
69630;BME280;56857;52.212;5.496;2023-06-10T10:30:14;101679.38;;;39.51;25.62
69630;BME280;56857;52.212;5.496;2023-06-10T10:32:57;101683.75;;;39.40;27.10
69630;BME280;56857;52.212;5.496;2023-06-10T10:35:24;101683.63;;;39.61;24.96
69630;BME280;56857;52.212;5.496;2023-06-10T10:37:54;101681.84;;;40.30;25.44
69630;BME280;56857;52.212;5.496;2023-06-10T10:40:23;101684.69;;;40.46;24.09
69630;BME280;56857;52.212;5.496;2023-06-10T10:42:50;101678.06;;;40.50;22.89
69630;BME280;56857;52.212;5.496;2023-06-10T10:45:17;101674.97;;;40.40;22.71
69630;BME280;56857;52.212;5.496;2023-06-10T10:47:44;101674.94;;;40.52;22.80
69630;BME280;56857;52.212;5.496;2023-06-10T10:50:18;101674.63;;;40.69;21.98
69630;BME280;56857;52.212;5.496;2023-06-10T10:55:16;101668.56;;;40.95;22.22
69630;BME280;56857;52.212;5.496;2023-06-10T10:57:43;101675.88;;;41.16;22.43
69630;BME280;56857;52.212;5.496;2023-06-10T11:00:24;101666.47;;;41.52;21.58
69630;BME280;56857;52.212;5.496;2023-06-10T11:02:49;101664.44;;;41.49;20.83
69630;BME280;56857;52.212;5.496;2023-06-10T11:05:16;101669.94;;;41.33;20.25
69630;BME280;56857;52.212;5.496;2023-06-10T11:07:54;101656.56;;;40.91;21.43
69630;BME280;56857;52.212;5.496;2023-06-10T11:10:29;101663.44;;;40.53;21.27
69630;BME280;56857;52.212;5.496;2023-06-10T11:12:54;101660.22;;;40.95;21.24
69630;BME280;56857;52.212;5.496;2023-06-10T11:15:23;101662.25;;;41.11;21.02
69630;BME280;56857;52.212;5.496;2023-06-10T11:18:41;101659.00;;;40.93;21.10
69630;BME280;56857;52.212;5.496;2023-06-10T11:21:03;101654.97;;;40.34;20.84
69630;BME280;56857;52.212;5.496;2023-06-10T11:23:30;101651.53;;;40.13;21.35
69630;BME280;56857;52.212;5.496;2023-06-10T11:29:06;101646.78;;;40.82;22.07
69630;BME280;56857;52.212;5.496;2023-06-10T11:31:33;101648.94;;;41.36;21.53
69630;BME280;56857;52.212;5.496;2023-06-10T11:34:03;101652.81;;;41.63;21.90
69630;BME280;56857;52.212;5.496;2023-06-10T11:36:29;101650.84;;;41.83;21.69
69630;BME280;56857;52.212;5.496;2023-06-10T11:39:03;101647.19;;;41.79;20.94
69630;BME280;56857;52.212;5.496;2023-06-10T11:41:30;101646.16;;;42.22;20.80
69630;BME280;56857;52.212;5.496;2023-06-10T11:43:57;101640.06;;;42.55;20.45
69630;BME280;56857;52.212;5.496;2023-06-10T11:46:25;101648.63;;;42.86;20.07
69630;BME280;56857;52.212;5.496;2023-06-10T11:48:52;101643.16;;;42.93;19.47
69630;BME280;56857;52.212;5.496;2023-06-10T11:51:17;101645.69;;;42.59;19.56
69630;BME280;56857;52.212;5.496;2023-06-10T11:53:49;101636.69;;;42.27;19.82
69630;BME280;56857;52.212;5.496;2023-06-10T11:56:25;101625.94;;;42.25;20.44
69630;BME280;56857;52.212;5.496;2023-06-10T11:59:03;101630.84;;;42.12;20.11
69630;BME280;56857;52.212;5.496;2023-06-10T12:01:30;101631.56;;;42.09;20.14
69630;BME280;56857;52.212;5.496;2023-06-10T12:04:04;101632.72;;;42.08;20.08
69630;BME280;56857;52.212;5.496;2023-06-10T12:06:44;101623.56;;;42.08;20.34
69630;BME280;56857;52.212;5.496;2023-06-10T12:09:26;101631.34;;;41.99;20.35
69630;BME280;56857;52.212;5.496;2023-06-10T12:12:01;101615.44;;;41.99;19.71
69630;BME280;56857;52.212;5.496;2023-06-10T12:14:55;101619.69;;;40.94;20.71
69630;BME280;56857;52.212;5.496;2023-06-10T12:17:22;101617.34;;;40.65;20.48
69630;BME280;56857;52.212;5.496;2023-06-10T12:19:48;101608.75;;;40.58;20.80
69630;BME280;56857;52.212;5.496;2023-06-10T12:22:14;101610.59;;;40.09;21.40
69630;BME280;56857;52.212;5.496;2023-06-10T12:24:57;101603.22;;;40.01;22.35
69630;BME280;56857;52.212;5.496;2023-06-10T12:27:23;101599.09;;;39.83;21.57
69630;BME280;56857;52.212;5.496;2023-06-10T12:29:52;101596.25;;;39.43;21.80
69630;BME280;56857;52.212;5.496;2023-06-10T12:32:17;101587.19;;;39.09;22.34
69630;BME280;56857;52.212;5.496;2023-06-10T12:34:42;101584.47;;;39.33;22.26
69630;BME280;56857;52.212;5.496;2023-06-10T12:37:12;101590.09;;;39.61;23.04
69630;BME280;56857;52.212;5.496;2023-06-10T12:39:38;101595.06;;;39.56;22.16
69630;BME280;56857;52.212;5.496;2023-06-10T12:42:03;101590.94;;;39.13;22.70
69630;BME280;56857;52.212;5.496;2023-06-10T12:44:34;101587.59;;;39.32;23.04
69630;BME280;56857;52.212;5.496;2023-06-10T12:47:00;101595.84;;;39.69;22.93
69630;BME280;56857;52.212;5.496;2023-06-10T12:49:26;101597.13;;;39.83;22.38
69630;BME280;56857;52.212;5.496;2023-06-10T12:51:52;101598.78;;;40.13;22.15
69630;BME280;56857;52.212;5.496;2023-06-10T12:54:17;101600.97;;;40.19;21.91